Time;durP1;ratioP1;P1;durP2;ratioP2;P2;SDS_P1;SDS_P2;PMS_P1;PMS_P2;Temp;Humidity;BMP_temperature;BMP_pressure;BME280_temperature;BME280_humidity;BME280_pressure;Samples;Min_cycle;Max_cycle;Signal;HPM_P1;HPM_P2
2021/07/04 00:01:06;;;;;;;0.98;0.93;;;19.00;91.00;;;21.98;77.01;101177.53;5006074;28;98728;-75
2021/07/04 00:03:36;;;;;;;0.95;0.88;;;19.00;91.00;;;22.03;76.38;101175.28;5006904;28;97285;-75
2021/07/04 00:06:05;;;;;;;0.63;0.63;;;19.00;90.90;;;22.01;77.05;101172.13;5010066;28;96852;-74
2021/07/04 00:08:34;;;;;;;3.70;0.47;;;19.00;90.90;;;21.96;76.70;101164.25;5006963;28;96827;-75
2021/07/04 00:11:09;;;;;;;0.60;0.60;;;19.00;90.90;;;21.97;76.91;101168.56;5005869;28;97200;-74
2021/07/04 00:13:40;;;;;;;0.32;0.32;;;19.00;90.90;;;21.95;77.11;101170.06;5005321;28;97063;-74
2021/07/04 00:16:09;;;;;;;1.42;1.02;;;19.00;90.90;;;21.87;76.61;101169.16;5007180;28;96760;-74
2021/07/04 00:18:38;;;;;;;0.63;0.63;;;19.00;90.90;;;21.80;77.33;101169.06;5008889;28;96899;-74
2021/07/04 00:21:09;;;;;;;0.70;0.70;;;18.90;90.80;;;21.73;76.96;101168.16;5029126;27;97790;-74
2021/07/04 00:23:39;;;;;;;0.88;0.88;;;18.90;90.90;;;21.76;77.36;101164.69;5007156;28;98919;-74
2021/07/04 00:26:10;;;;;;;1.23;1.15;;;18.90;90.90;;;21.76;76.69;101161.97;5006026;28;97392;-74
2021/07/04 00:28:39;;;;;;;14.00;3.17;;;18.80;90.90;;;21.83;76.73;101159.38;5044283;27;97418;-74
2021/07/04 00:31:08;;;;;;;3.88;1.60;;;18.80;90.90;;;21.80;77.07;101151.91;5010110;28;98071;-74
2021/07/04 00:33:38;;;;;;;1.73;1.55;;;18.80;90.90;;;21.83;76.42;101149.22;5004335;28;97847;-74
2021/07/04 00:36:07;;;;;;;0.77;0.77;;;18.80;91.00;;;21.84;76.92;101152.75;5006379;28;96870;-74
2021/07/04 00:38:36;;;;;;;1.33;0.98;;;18.80;91.00;;;21.82;76.35;101152.34;5025188;27;96959;-74
2021/07/04 00:41:05;;;;;;;0.20;0.20;;;18.80;91.00;;;21.85;76.90;101151.59;5028425;27;97116;-74
2021/07/04 00:43:36;;;;;;;0.28;0.28;;;18.80;91.30;;;21.77;76.72;101144.44;4985964;28;100335;-74
2021/07/04 00:46:05;;;;;;;0.32;0.32;;;18.80;91.00;;;21.80;77.07;101149.19;5009348;28;97652;-74
2021/07/04 00:48:35;;;;;;;2.08;1.27;;;18.80;91.00;;;21.81;77.28;101154.25;4990408;28;97491;-74
2021/07/04 00:51:06;;;;;;;7.82;2.03;;;18.90;91.00;;;21.82;77.10;101150.38;5011052;28;97044;-74
2021/07/04 00:53:35;;;;;;;1.27;1.17;;;18.90;91.00;;;21.86;76.89;101156.69;5014169;28;97823;-74
2021/07/04 00:56:05;;;;;;;1.30;1.05;;;18.90;91.00;;;21.84;77.16;101148.06;5027723;27;96876;-74
2021/07/04 00:58:35;;;;;;;11.13;3.03;;;18.90;91.00;;;21.80;76.75;101149.97;5009493;28;97395;-74
2021/07/04 01:01:06;;;;;;;0.75;0.75;;;18.90;91.00;;;21.79;76.88;101153.84;5026477;27;97842;-74
2021/07/04 01:03:34;;;;;;;0.68;0.57;;;18.90;91.00;;;21.77;77.55;101145.25;5025381;27;97678;-74
2021/07/04 01:06:03;;;;;;;1.05;1.00;;;18.90;91.00;;;21.77;77.71;101141.72;4992490;28;96948;-74
2021/07/04 01:08:33;;;;;;;0.25;0.22;;;18.90;91.00;;;21.75;77.38;101147.56;5005287;28;97856;-74
2021/07/04 01:11:04;;;;;;;1.55;1.45;;;18.90;90.90;;;21.72;77.60;101140.09;5026908;27;98054;-74
2021/07/04 01:13:37;;;;;;;3.72;1.38;;;18.90;90.90;;;21.67;77.17;101147.78;5020208;28;97746;-74
2021/07/04 01:16:15;;;;;;;1.75;1.25;;;18.90;90.90;;;21.62;77.67;101153.56;5007942;28;96949;-73
2021/07/04 01:18:46;;;;;;;0.63;0.60;;;18.80;90.90;;;21.56;78.01;101147.59;5022600;27;96930;-74
2021/07/04 01:21:25;;;;;;;0.30;0.30;;;18.80;91.00;;;21.58;77.61;101150.75;5004386;28;97884;-74
2021/07/04 01:23:57;;;;;;;0.40;0.40;;;18.80;91.00;;;21.59;77.45;101151.53;4990190;28;98082;-74
2021/07/04 01:26:26;;;;;;;3.20;0.85;;;18.80;91.00;;;21.57;77.88;101145.66;5008650;28;96788;-74
2021/07/04 01:28:55;;;;;;;0.63;0.47;;;18.80;91.00;;;21.62;77.88;101140.72;5019620;28;97258;-74
2021/07/04 01:31:25;;;;;;;0.75;0.75;;;18.80;91.00;;;21.65;77.97;101145.44;4989086;28;97887;-74
2021/07/04 01:34:05;;;;;;;1.65;0.98;;;18.80;91.00;;;21.59;77.61;101141.41;5003695;28;97905;-74
2021/07/04 01:36:38;;;;;;;0.50;0.50;;;18.80;91.10;;;21.69;77.37;101134.56;5007096;28;97206;-74
2021/07/04 01:39:11;;;;;;;1.55;1.40;;;18.80;91.20;;;21.61;77.15;101138.31;5009118;28;96728;-73
2021/07/04 01:41:52;;;;;;;1.00;1.00;;;18.80;91.20;;;21.63;77.99;101134.13;5006451;28;97355;-73
2021/07/04 01:44:26;;;;;;;;;;;18.80;91.20;;;21.63;77.16;101138.78;4990361;28;97849;-74
2021/07/04 01:46:55;;;;;;;0.80;0.47;;;18.80;91.30;;;21.63;77.60;101144.22;5007680;28;96774;-73
2021/07/04 01:49:32;;;;;;;0.63;0.63;;;18.80;91.30;;;21.63;77.85;101141.50;5025499;27;97024;-73
2021/07/04 01:52:04;;;;;;;1.65;1.38;;;18.80;91.30;;;21.67;76.98;101143.16;5025205;27;97911;-73
2021/07/04 01:54:38;;;;;;;2.67;0.85;;;18.80;91.40;;;21.87;77.47;101139.16;5044724;27;98649;-73
2021/07/04 01:57:13;;;;;;;0.08;0.08;;;18.80;91.40;;;21.78;76.88;101130.44;4992570;28;97107;-72
2021/07/04 01:59:56;;;;;;;0.28;0.28;;;18.80;91.50;;;21.86;77.14;101118.47;5005145;28;97065;-72
2021/07/04 02:02:50;;;;;;;0.60;0.60;;;18.80;91.60;;;21.76;78.58;101130.03;5005312;28;96840;-72
2021/07/04 02:05:27;;;;;;;0.60;0.60;;;18.80;91.70;;;21.69;78.61;101112.75;5026608;27;98392;-72
2021/07/04 02:07:57;;;;;;;8.13;1.63;;;18.80;91.70;;;21.75;77.78;101120.28;5029894;27;98679;-72
2021/07/04 02:10:34;;;;;;;1.58;1.35;;;18.80;91.80;;;21.76;77.88;101116.38;5008512;28;97199;-72
2021/07/04 02:13:09;;;;;;;10.82;2.22;;;18.80;91.90;;;21.69;79.00;101124.47;5028436;27;97412;-72
2021/07/04 02:15:42;;;;;;;0.95;0.82;;;18.80;91.90;;;21.61;79.39;101114.59;5024177;28;97669;-72
2021/07/04 02:18:20;;;;;;;0.20;0.20;;;18.70;91.90;;;21.56;79.35;101111.38;5004530;28;96836;-72
2021/07/04 02:21:10;;;;;;;4.28;1.58;;;18.70;92.00;;;21.56;79.32;101106.69;5042792;27;96757;-73
2021/07/04 02:23:58;;;;;;;1.40;1.10;;;18.70;92.10;;;21.52;79.65;101103.13;5012194;28;97086;-72
2021/07/04 02:26:37;;;;;;;0.20;0.20;;;18.70;92.10;;;21.51;80.33;101108.94;5011505;28;98661;-73
2021/07/04 02:29:15;;;;;;;0.35;0.35;;;18.60;92.20;;;21.48;79.65;101104.22;5028436;27;96884;-72
2021/07/04 02:31:50;;;;;;;0.47;0.45;;;18.60;92.20;;;21.57;80.17;101097.34;5008092;28;96913;-72
2021/07/04 02:34:23;;;;;;;0.43;0.43;;;18.60;92.30;;;21.56;80.53;101106.69;5009811;28;97845;-72
2021/07/04 02:36:59;;;;;;;2.75;1.35;;;18.60;92.40;;;21.54;79.95;101116.41;5033932;27;96754;-72
2021/07/04 02:39:34;;;;;;;0.82;0.82;;;18.60;92.40;;;21.47;80.49;101116.28;4984906;28;96828;-72
2021/07/04 02:42:08;;;;;;;17.90;1.17;;;18.60;92.50;;;21.43;80.17;101115.41;5035196;27;96735;-72
2021/07/04 02:44:39;;;;;;;0.10;0.10;;;18.60;92.50;;;21.42;80.60;101117.38;5007672;28;98047;-72
2021/07/04 02:47:11;;;;;;;1.50;1.40;;;18.60;92.50;;;21.43;81.01;101121.69;5009200;28;97204;-72
2021/07/04 02:49:42;;;;;;;0.95;0.68;;;18.60;92.60;;;21.49;81.12;101122.16;5024611;27;96870;-72
2021/07/04 02:52:12;;;;;;;2.90;1.30;;;18.60;92.70;;;21.49;80.25;101117.47;5011283;28;97654;-72
2021/07/04 02:54:42;;;;;;;2.22;1.38;;;18.60;92.70;;;21.51;80.89;101117.91;5010959;28;97554;-72
2021/07/04 02:57:20;;;;;;;2.13;0.85;;;18.60;92.70;;;21.54;81.05;101119.13;4991925;28;96822;-72
2021/07/04 02:59:52;;;;;;;1.67;1.10;;;18.60;92.70;;;21.54;80.39;101111.72;5007873;28;96853;-72
2021/07/04 03:02:22;;;;;;;5.55;1.38;;;18.60;92.70;;;21.54;80.78;101103.53;4994727;28;97434;-72
2021/07/04 03:04:56;;;;;;;3.40;1.48;;;18.60;92.80;;;21.59;80.77;101107.91;4995175;28;97236;-72
2021/07/04 03:07:26;;;;;;;0.82;0.82;;;18.60;92.80;;;21.62;80.69;101112.66;5029702;27;98288;-71
2021/07/04 03:09:56;;;;;;;3.03;1.02;;;18.60;92.90;;;21.61;81.00;101121.97;5011366;28;97067;-73
2021/07/04 03:12:28;;;;;;;1.10;1.00;;;18.60;92.90;;;21.58;79.88;101114.50;5007804;28;97452;-72
2021/07/04 03:15:05;;;;;;;2.00;0.95;;;18.60;92.80;;;21.49;80.38;101114.75;5007466;28;97959;-72
2021/07/04 03:17:35;;;;;;;0.57;0.52;;;18.60;92.90;;;21.52;80.97;101105.06;5025164;27;96832;-73
2021/07/04 03:20:09;;;;;;;0.77;0.73;;;18.60;92.90;;;21.51;80.64;101103.50;5009809;28;97376;-72
2021/07/04 03:22:40;;;;;;;1.10;1.00;;;18.60;93.00;;;21.56;80.90;101106.69;5038611;27;96928;-72
2021/07/04 03:25:13;;;;;;;1.13;0.90;;;18.60;93.00;;;21.57;80.43;101104.75;5003621;28;97809;-72
2021/07/04 03:27:45;;;;;;;0.47;0.47;;;18.60;93.00;;;21.57;80.50;101104.75;5010028;28;97649;-72
2021/07/04 03:30:21;;;;;;;3.63;1.08;;;18.60;93.00;;;21.57;80.66;101105.53;5008390;28;96835;-72
2021/07/04 03:32:53;;;;;;;0.50;0.50;;;18.60;93.00;;;21.64;80.20;101100.25;5040356;27;96751;-72
2021/07/04 03:35:29;;;;;;;2.25;2.05;;;18.60;93.00;;;21.60;81.34;101101.28;5009517;28;98087;-72
2021/07/04 03:38:04;;;;;;;0.37;0.30;;;18.60;93.10;;;21.64;81.24;101104.88;5004650;28;98441;-72
2021/07/04 03:40:33;;;;;;;1.65;1.15;;;18.60;93.10;;;21.65;80.77;101103.75;5025594;27;97244;-72
2021/07/04 03:43:14;;;;;;;1.50;1.10;;;18.60;93.10;;;21.65;80.70;101107.25;5007683;28;100779;-72
2021/07/04 03:45:43;;;;;;;9.30;1.35;;;18.60;93.10;;;21.65;80.92;101107.25;5039656;27;96974;-72
2021/07/04 03:48:12;;;;;;;0.95;0.68;;;18.60;93.10;;;21.66;81.13;101103.38;5007021;28;97839;-72
2021/07/04 03:50:48;;;;;;;1.27;1.17;;;18.60;93.10;;;21.74;80.48;101099.59;5007171;28;97162;-72
2021/07/04 03:53:18;;;;;;;3.10;0.77;;;18.60;93.10;;;21.75;81.28;101101.19;5020219;27;97911;-72
2021/07/04 03:55:49;;;;;;;2.92;2.30;;;18.70;93.20;;;21.78;80.45;101105.13;5007654;28;97782;-72
2021/07/04 03:58:22;;;;;;;0.93;0.93;;;18.70;93.20;;;21.81;81.22;101109.84;4989384;28;97866;-72
2021/07/04 04:00:51;;;;;;;1.10;0.95;;;18.70;93.20;;;21.81;80.70;101110.63;5007274;28;96888;-72
2021/07/04 04:03:31;;;;;;;2.75;0.85;;;18.70;93.20;;;21.88;80.46;101116.16;4991384;28;97186;-72
2021/07/04 04:06:04;;;;;;;2.30;1.00;;;18.80;93.20;;;21.92;80.24;101116.22;5023462;27;97027;-72
2021/07/04 04:08:39;;;;;;;1.17;1.02;;;18.80;93.20;;;21.73;81.86;101119.84;5005653;28;96812;-72
2021/07/04 04:11:09;;;;;;;0.50;0.50;;;18.80;93.20;;;21.72;82.04;101115.56;5033528;27;97376;-72
2021/07/04 04:13:47;;;;;;;0.93;0.90;;;18.80;93.20;;;21.72;81.64;101123.72;5023453;27;96955;-72
2021/07/04 04:16:21;;;;;;;1.17;0.55;;;18.80;93.20;;;21.82;81.13;101123.09;5025890;27;98033;-72
2021/07/04 04:18:52;;;;;;;0.85;0.85;;;18.80;93.20;;;21.89;81.34;101122.44;5030392;27;97647;-72
2021/07/04 04:21:23;;;;;;;1.70;1.48;;;18.80;93.20;;;21.85;81.12;101122.38;5003799;28;96732;-72
2021/07/04 04:23:59;;;;;;;2.47;1.75;;;18.80;93.20;;;21.94;81.26;101120.19;5006491;28;96811;-72
2021/07/04 04:26:32;;;;;;;0.15;0.15;;;18.80;93.20;;;21.82;81.40;101116.88;5037089;27;97193;-72
2021/07/04 04:29:03;;;;;;;1.33;1.00;;;18.80;93.20;;;21.88;80.92;101118.91;5007166;28;96916;-72
2021/07/04 04:31:35;;;;;;;0.75;0.75;;;18.80;93.30;;;21.89;80.68;101117.75;4991299;28;96855;-72
2021/07/04 04:34:05;;;;;;;1.58;0.93;;;18.80;93.30;;;21.97;80.75;101119.44;5005719;28;96887;-71
2021/07/04 04:36:34;;;;;;;1.45;1.02;;;18.80;93.30;;;22.04;80.81;101119.53;5006898;28;97205;-72
2021/07/04 04:39:06;;;;;;;1.70;0.88;;;18.90;93.30;;;22.12;80.92;101109.50;5005047;28;97779;-72
2021/07/04 04:41:36;;;;;;;1.35;1.25;;;18.90;93.30;;;22.22;80.24;101112.38;5004631;28;97061;-72
2021/07/04 04:44:08;;;;;;;4.40;1.83;;;19.00;93.30;;;22.21;80.61;101118.19;5007977;28;96879;-72
2021/07/04 04:46:37;;;;;;;1.98;1.85;;;19.00;93.30;;;22.23;80.10;101116.69;5005826;28;98312;-72
2021/07/04 04:49:06;;;;;;;1.60;0.82;;;19.10;93.20;;;22.18;80.77;101116.22;5005618;28;97593;-71
2021/07/04 04:51:35;;;;;;;0.35;0.32;;;19.10;93.20;;;22.21;80.95;101118.97;5002148;28;96893;-71
2021/07/04 04:54:06;;;;;;;0.95;0.80;;;19.10;93.20;;;22.25;80.80;101106.94;5005534;28;97087;-72
2021/07/04 04:56:35;;;;;;;1.02;0.40;;;19.10;93.20;;;22.41;80.56;101104.84;5003098;28;97806;-72
2021/07/04 04:59:06;;;;;;;7.40;0.82;;;19.20;93.20;;;22.51;80.10;101104.19;5005803;28;97681;-72
2021/07/04 05:01:35;;;;;;;2.28;0.90;;;19.20;93.20;;;22.61;79.84;101102.75;5004455;28;96889;-72
2021/07/04 05:04:06;;;;;;;0.98;0.90;;;19.30;93.10;;;22.70;80.18;101097.75;5039319;27;97177;-72
2021/07/04 05:06:35;;;;;;;1.40;0.73;;;19.40;93.00;;;22.67;80.19;101104.78;5006947;28;97906;-72
2021/07/04 05:09:05;;;;;;;0.52;0.52;;;19.50;93.00;;;22.68;80.11;101100.09;5005769;28;98093;-72
2021/07/04 05:11:33;;;;;;;3.58;1.13;;;19.50;92.90;;;22.65;79.92;101098.09;5003751;28;97892;-72
2021/07/04 05:14:06;;;;;;;4.57;1.25;;;19.50;92.90;;;22.62;80.35;101101.59;5005958;28;97258;-72
2021/07/04 05:16:36;;;;;;;2.30;1.88;;;19.50;92.90;;;22.57;80.41;101094.50;5000852;28;97878;-72
2021/07/04 05:19:06;;;;;;;1.80;1.58;;;19.50;93.00;;;22.62;80.11;101101.59;5005760;28;97917;-72
2021/07/04 05:21:35;;;;;;;5.53;2.17;;;19.50;93.00;;;22.63;80.55;101100.44;5005592;28;96856;-72
2021/07/04 05:24:07;;;;;;;1.25;1.20;;;19.40;93.00;;;22.66;80.36;101094.97;5039932;27;97405;-72
2021/07/04 05:26:37;;;;;;;0.73;0.73;;;19.40;93.10;;;22.65;80.39;101098.88;5004170;28;98276;-72
2021/07/04 05:29:08;;;;;;;2.20;2.00;;;19.40;93.10;;;22.66;80.61;101099.69;5000500;28;97793;-72
2021/07/04 05:31:37;;;;;;;1.45;1.35;;;19.50;93.10;;;22.63;80.12;101101.19;5004949;28;96823;-72
2021/07/04 05:34:06;;;;;;;1.10;1.02;;;19.50;93.10;;;22.66;80.34;101096.94;5030610;27;101267;-72
2021/07/04 05:36:35;;;;;;;1.15;1.10;;;19.50;93.40;;;22.61;80.54;101105.47;5026661;27;98254;-72
2021/07/04 05:39:05;;;;;;;2.05;1.20;;;19.50;93.20;;;22.62;80.66;101096.13;5000427;28;97978;-72
2021/07/04 05:41:34;;;;;;;4.68;1.80;;;19.50;93.20;;;22.59;81.06;101099.59;4997351;28;97169;-72
2021/07/04 05:44:06;;;;;;;2.72;1.55;;;19.50;93.20;;;22.61;81.24;101102.75;5004276;28;96950;-72
2021/07/04 05:46:37;;;;;;;0.45;0.20;;;19.50;93.20;;;22.58;81.28;101107.00;5003351;28;97904;-72
2021/07/04 05:49:08;;;;;;;2.90;0.80;;;19.50;93.20;;;22.61;80.95;101106.25;5002083;28;97761;-72
2021/07/04 05:51:37;;;;;;;7.50;1.80;;;19.50;93.20;;;22.60;80.68;101112.88;5000852;28;96775;-72
2021/07/04 05:54:05;;;;;;;1.98;1.40;;;19.50;93.20;;;22.48;80.69;101106.88;5004740;28;97255;-72
2021/07/04 05:56:34;;;;;;;1.00;0.93;;;19.40;93.20;;;22.38;81.12;101096.63;5010820;28;98304;-72
2021/07/04 05:59:07;;;;;;;1.70;0.82;;;19.40;93.20;;;22.32;81.29;101100.81;5004049;28;96999;-72
2021/07/04 06:01:36;;;;;;;0.20;0.20;;;19.30;93.20;;;22.30;81.09;101095.69;5005040;28;97228;-72
2021/07/04 06:04:06;;;;;;;2.35;1.90;;;19.30;93.30;;;22.30;81.46;101101.16;5003593;28;97003;-72
2021/07/04 06:06:35;;;;;;;0.77;0.77;;;19.30;93.40;;;22.27;80.92;101109.31;4999121;28;99223;-72
2021/07/04 06:09:05;;;;;;;1.63;1.10;;;19.20;93.40;;;22.28;81.49;101106.22;5004220;28;97705;-72
2021/07/04 06:11:34;;;;;;;0.20;0.15;;;19.20;93.40;;;22.31;81.33;101107.41;5003885;28;96852;-72
2021/07/04 06:14:06;;;;;;;1.45;1.27;;;19.20;93.40;;;22.32;80.97;101096.13;4988692;28;100012;-72
2021/07/04 06:16:35;;;;;;;0.98;0.80;;;19.20;93.50;;;22.37;80.71;101095.03;4999741;28;98971;-72
2021/07/04 06:19:04;;;;;;;1.70;1.45;;;19.20;93.50;;;22.47;80.52;101094.38;5029568;27;97859;-72
2021/07/04 06:21:33;;;;;;;1.33;0.90;;;19.20;93.50;;;22.60;80.33;101096.47;4999045;28;97719;-72
2021/07/04 06:24:04;;;;;;;2.33;1.17;;;19.30;93.50;;;22.74;80.13;101088.47;5001638;28;97340;-72
2021/07/04 06:26:33;;;;;;;1.42;0.90;;;19.40;93.40;;;22.90;79.76;101094.47;5000410;28;97043;-73
2021/07/04 06:29:03;;;;;;;1.02;0.98;;;19.50;93.30;;;23.04;79.32;101093.81;4996037;28;97830;-73
2021/07/04 06:31:33;;;;;;;1.05;0.65;;;19.60;93.20;;;22.93;79.96;101101.16;4995601;28;96757;-73
2021/07/04 06:34:05;;;;;;;1.63;1.50;;;19.70;93.20;;;22.95;80.30;101096.84;4996835;28;97490;-72
2021/07/04 06:36:34;;;;;;;1.80;1.15;;;19.70;93.10;;;23.15;79.62;101101.00;5000899;28;97819;-72
2021/07/04 06:39:05;;;;;;;2.05;1.23;;;19.80;93.20;;;23.16;79.84;101099.84;5000724;28;96848;-72
2021/07/04 06:41:34;;;;;;;0.68;0.68;;;19.80;93.00;;;23.14;79.74;101102.16;5001377;28;97083;-73
2021/07/04 06:44:05;;;;;;;0.32;0.32;;;19.90;93.00;;;23.13;80.04;101102.56;5005196;28;97129;-73
2021/07/04 06:46:35;;;;;;;0.60;0.60;;;19.90;93.00;;;22.99;80.38;101105.09;5001851;28;97830;-72
2021/07/04 06:49:06;;;;;;;1.67;1.23;;;19.90;93.00;;;22.89;80.43;101103.81;5016899;28;97691;-72
2021/07/04 06:51:35;;;;;;;1.58;0.98;;;19.80;93.00;;;22.91;80.83;101109.69;5001985;28;96750;-72
2021/07/04 06:54:06;;;;;;;0.65;0.65;;;19.80;93.10;;;23.01;80.62;101097.31;4999108;28;97088;-72
2021/07/04 06:56:34;;;;;;;0.93;0.93;;;19.80;93.20;;;23.23;80.04;101094.41;5018849;27;96982;-72
2021/07/04 06:59:04;;;;;;;2.15;0.88;;;19.90;93.20;;;23.53;79.12;101088.81;4997066;28;97996;-72
2021/07/04 07:01:34;;;;;;;0.57;0.57;;;20.00;93.10;;;23.74;78.76;101088.97;5000131;28;97369;-72
2021/07/04 07:04:05;;;;;;;3.95;2.50;;;20.10;92.90;;;24.05;78.23;101084.50;5022490;27;96758;-72
2021/07/04 07:06:33;;;;;;;0.20;0.20;;;20.30;92.80;;;24.27;77.30;101086.16;5000525;28;97756;-72
2021/07/04 07:09:04;;;;;;;0.90;0.90;;;20.50;92.60;;;24.26;77.50;101081.84;5007398;28;97110;-73
2021/07/04 07:11:33;;;;;;;0.63;0.63;;;20.60;92.40;;;24.22;78.10;101080.28;5013091;28;96881;-73
2021/07/04 07:14:05;;;;;;;2.40;1.25;;;20.60;92.40;;;24.25;78.15;101077.53;5001073;28;97004;-73
2021/07/04 07:16:35;;;;;;;0.68;0.68;;;20.70;92.50;;;24.30;78.32;101071.69;5000306;28;96920;-73
2021/07/04 07:19:06;;;;;;;1.00;0.97;;;20.70;92.50;;;24.28;77.97;101076.75;4990555;28;97317;-73
2021/07/04 07:21:35;;;;;;;1.60;1.50;;;20.80;92.50;;;24.34;78.37;101071.72;5006912;28;97355;-73
2021/07/04 07:24:05;;;;;;;1.05;1.02;;;20.80;92.50;;;24.58;77.63;101073.78;4991682;28;97353;-73
2021/07/04 07:26:34;;;;;;;5.53;1.23;;;20.90;92.50;;;24.79;77.31;101066.41;5026397;27;98114;-73
2021/07/04 07:29:05;;;;;;;1.00;0.93;;;21.00;92.40;;;25.03;76.86;101064.84;5009533;28;97713;-73
2021/07/04 07:31:36;;;;;;;3.33;1.73;;;21.20;92.30;;;25.09;76.20;101068.81;5003513;28;97178;-73
2021/07/04 07:34:06;;;;;;;0.80;0.65;;;21.30;92.10;;;24.90;77.20;101064.44;5003122;28;96988;-73
2021/07/04 07:36:36;;;;;;;1.52;0.22;;;21.30;92.10;;;25.07;77.06;101062.91;4989119;28;98117;-73
2021/07/04 07:39:06;;;;;;;4.22;1.23;;;21.40;92.20;;;25.45;76.55;101051.19;5007981;28;98134;-74
2021/07/04 07:41:42;;;;;;;1.35;1.10;;;21.50;92.10;;;25.72;75.28;101062.13;4990458;28;97151;-73
2021/07/04 07:44:12;;;;;;;1.50;1.08;;;21.60;92.00;;;26.38;73.51;101054.84;5037753;27;96817;-73
2021/07/04 07:46:48;;;;;;;1.33;0.82;;;21.90;91.90;;;27.26;71.26;101057.84;5031427;27;97850;-73
2021/07/04 07:49:18;;;;;;;1.33;0.60;;;22.40;91.50;;;27.54;70.44;101053.66;5007133;28;98900;-74
2021/07/04 07:51:50;;;;;;;3.40;1.55;;;22.80;90.90;;;27.36;71.85;101053.06;5017641;28;96993;-74
2021/07/04 07:54:31;;;;;;;1.63;1.05;;;23.00;90.60;;;27.13;72.93;101060.31;5001367;28;96912;-74
2021/07/04 07:57:02;;;;;;;2.42;1.00;;;23.10;90.50;;;26.79;74.03;101051.09;5003966;28;96966;-74
2021/07/04 07:59:36;;;;;;;0.73;0.73;;;23.00;90.60;;;26.53;75.44;101056.38;4986387;28;97854;-74
2021/07/04 08:02:06;;;;;;;0.52;0.52;;;23.00;90.90;;;26.93;74.55;101044.72;5003482;28;96802;-74
2021/07/04 08:04:36;;;;;;;0.55;0.55;;;23.00;91.10;;;28.06;71.00;101043.28;5002411;28;96822;-74
2021/07/04 08:07:06;;;;;;;0.50;0.50;;;23.20;91.00;;;30.41;63.79;101039.00;5022567;27;97258;-74
2021/07/04 08:09:34;;;;;;;0.20;0.20;;;24.10;90.10;;;31.38;61.91;101038.69;5005915;28;97162;-74
2021/07/04 08:12:08;;;;;;;0.80;0.80;;;24.90;89.00;;;30.45;65.47;101039.69;5001056;28;96917;-74
2021/07/04 08:14:44;;;;;;;0.55;0.55;;;25.30;87.10;;;30.34;66.56;101028.09;5005045;28;96953;-74
2021/07/04 08:17:14;;;;;;;4.80;1.75;;;25.50;86.90;;;30.24;67.75;101025.53;5036112;27;97904;-71
2021/07/04 08:19:43;;;;;;;2.70;1.23;;;25.60;87.00;;;30.76;66.42;101027.94;5002424;28;97719;-73
2021/07/04 08:22:15;;;;;;;1.08;0.98;;;25.80;87.40;;;34.13;55.61;101026.38;5002510;28;98876;-74
2021/07/04 08:24:44;;;;;;;3.65;0.98;;;26.50;86.20;;;36.58;50.92;101016.69;5006377;28;97207;-73
2021/07/04 08:27:13;;;;;;;1.52;1.17;;;27.70;83.10;;;37.89;48.22;101018.75;4987083;28;96979;-74
2021/07/04 08:29:43;;;;;;;1.05;0.95;;;28.70;81.10;;;37.63;50.83;101013.38;4990009;28;97712;-73
2021/07/04 08:32:11;;;;;;;3.53;2.40;;;29.50;79.30;;;36.79;53.48;101014.88;5003213;28;96797;-74
2021/07/04 08:34:42;;;;;;;0.93;0.90;;;29.90;79.10;;;40.11;45.71;101006.09;5023756;27;97044;-74
2021/07/04 08:37:11;;;;;;;2.45;1.67;;;30.60;78.70;;;39.62;48.63;101008.38;5026142;27;96931;-74
2021/07/04 08:39:40;;;;;;;0.60;0.60;;;31.40;77.30;;;36.79;56.47;101000.91;5018073;28;97942;-74
2021/07/04 08:42:08;;;;;;;2.38;1.25;;;31.40;77.60;;;35.57;60.91;100993.44;5004083;28;96890;-74
2021/07/04 08:44:37;;;;;;;0.30;0.30;;;31.00;79.10;;;38.40;52.91;101001.56;5005863;28;97514;-77
2021/07/04 08:47:06;;;;;;;0.75;0.75;;;31.10;79.80;;;39.61;49.97;100987.19;5001397;28;97269;-74
2021/07/04 08:49:35;;;;;;;0.77;0.75;;;31.50;79.00;;;40.40;48.47;100988.16;5003859;28;97970;-77
2021/07/04 08:52:07;;;;;;;1.55;0.98;;;32.00;78.20;;;40.12;50.17;100981.56;5006936;28;97128;-77
2021/07/04 08:54:36;;;;;;;1.05;0.98;;;32.30;77.90;;;37.34;57.98;100996.50;5005629;28;97160;-73
2021/07/04 08:57:08;;;;;;;3.65;1.42;;;32.20;77.90;;;35.33;64.41;100995.28;5004729;28;96989;-73
2021/07/04 08:59:38;;;;;;;3.60;1.73;;;31.70;79.50;;;34.24;68.24;100990.63;5001433;28;97357;-74
2021/07/04 09:02:10;;;;;;;0.17;0.17;;;31.10;81.50;;;34.17;68.18;100989.31;5025424;27;97136;-74
2021/07/04 09:04:41;;;;;;;0.77;0.60;;;30.60;83.20;;;35.57;63.86;100985.06;5004718;28;98957;-74
2021/07/04 09:07:25;;;;;;;3.20;1.27;;;30.50;83.70;;;34.96;65.14;100981.75;5005339;28;98027;-73
2021/07/04 09:09:58;;;;;;;0.80;0.80;;;30.40;83.50;;;36.19;61.93;100978.66;5004116;28;96923;-73
2021/07/04 09:12:39;;;;;;;3.33;1.63;;;30.40;84.30;;;36.04;61.85;100974.94;5000933;28;97268;-74
2021/07/04 09:15:14;;;;;;;7.05;0.95;;;30.60;83.70;;;34.47;67.48;100970.59;5002541;28;96957;-77
2021/07/04 09:17:48;;;;;;;2.60;1.27;;;30.40;84.10;;;37.89;57.42;100968.38;5005776;28;98196;-74
2021/07/04 09:20:21;;;;;;;0.60;0.60;;;30.40;84.70;;;37.62;58.54;100967.84;5003566;28;98048;-74
2021/07/04 09:22:54;;;;;;;;;;;30.80;84.30;;;37.57;58.82;100970.56;5008729;28;97136;-74
2021/07/04 09:25:26;;;;;;;3.85;1.27;;;31.00;83.00;;;40.73;51.16;100961.09;5020831;27;96997;-75
2021/07/04 09:28:06;;;;;;;;;;;31.60;83.20;;;41.98;48.03;100964.81;5001607;28;98249;-71
2021/07/04 09:30:39;;;;;;;1.10;0.95;;;32.20;81.20;;;42.65;47.11;100964.28;5022102;27;99674;-71
2021/07/04 09:33:15;;;;;;;4.00;1.83;;;32.80;81.00;;;40.17;53.89;100967.59;5004784;28;96959;-72
2021/07/04 09:35:58;;;;;;;4.90;2.17;;;33.00;80.10;;;40.13;54.12;100960.63;5003059;28;96784;-72
2021/07/04 09:38:34;;;;;;;2.92;1.77;;;33.10;79.80;;;37.90;60.24;100961.53;4998263;28;96962;-71
2021/07/04 09:41:08;;;;;;;5.00;1.05;;;32.90;80.60;;;36.22;66.10;100955.38;5004343;28;97649;-75
2021/07/04 09:43:39;;;;;;;1.95;1.58;;;32.50;81.30;;;34.76;69.18;100950.78;5021418;28;97150;-74
2021/07/04 09:46:10;;;;;;;1.10;1.00;;;31.80;82.00;;;34.28;69.96;100945.94;5004779;28;96801;-74
2021/07/04 09:48:43;;;;;;;1.75;1.45;;;31.20;83.30;;;33.70;71.08;100941.44;5001515;28;97188;-75
2021/07/04 09:51:20;;;;;;;3.30;2.65;;;30.70;84.60;;;34.02;70.37;100943.78;4992689;28;96989;-76
2021/07/04 09:53:54;;;;;;;3.85;1.83;;;30.20;85.70;;;34.04;69.84;100944.88;5004454;28;96868;-75
2021/07/04 09:56:25;;;;;;;3.00;1.92;;;30.10;86.10;;;33.53;71.16;100946.41;5001397;28;96853;-76
2021/07/04 09:58:57;;;;;;;1.63;1.35;;;29.90;86.50;;;33.53;71.02;100942.81;4987125;28;101144;-76
2021/07/04 10:01:35;;;;;;;2.93;1.87;;;29.80;87.60;;;33.61;70.71;100942.13;5002495;28;97246;-76
2021/07/04 10:04:08;;;;;;;5.63;3.40;;;29.70;87.40;;;33.77;70.25;100930.81;5002677;28;101216;-75
2021/07/04 10:06:48;;;;;;;5.03;2.53;;;29.60;87.40;;;33.42;70.33;100937.66;4998518;28;97112;-76
2021/07/04 10:09:25;;;;;;;1.52;1.42;;;29.60;87.10;;;32.68;72.18;100941.41;5000951;28;97047;-76
2021/07/04 10:11:54;;;;;;;2.97;1.85;;;29.30;87.50;;;32.24;73.04;100930.53;4999525;28;98435;-76
2021/07/04 10:14:24;;;;;;;1.50;1.35;;;28.90;88.00;;;31.82;73.41;100931.81;5002286;28;99120;-77
2021/07/04 10:16:54;;;;;;;6.03;1.67;;;28.60;88.10;;;31.56;74.09;100925.41;4999792;28;97797;-75
2021/07/04 10:19:29;;;;;;;1.87;1.73;;;28.40;88.70;;;31.33;74.45;100924.84;5002051;28;98558;-76
2021/07/04 10:22:01;;;;;;;4.85;2.60;;;28.20;89.00;;;31.00;74.82;100921.38;5003860;28;98116;-73
2021/07/04 10:24:34;;;;;;;3.85;2.00;;;27.90;89.10;;;30.96;74.93;100925.44;5033813;27;96732;-74
2021/07/04 10:27:07;;;;;;;3.55;1.70;;;27.70;89.80;;;30.94;74.98;100920.34;4995438;28;97187;-73
2021/07/04 10:29:36;;;;;;;1.85;1.67;;;27.60;90.10;;;31.10;74.00;100911.25;5006387;27;97200;-76
2021/07/04 10:32:08;;;;;;;3.40;2.30;;;27.50;90.30;;;30.96;74.37;100915.16;4999736;28;97368;-76